Time;durP1;ratioP1;P1;durP2;ratioP2;P2;SDS_P1;SDS_P2;PMS_P1;PMS_P2;Temp;Humidity;BMP_temperature;BMP_pressure;BME280_temperature;BME280_humidity;BME280_pressure;Samples;Min_cycle;Max_cycle;Signal;HPM_P1;HPM_P2
2022/09/01 00:02:16;;;;;;;10.60;6.70;;;25.70;99.90;;;;;;5051510;28;20048;-74
2022/09/01 00:04:44;;;;;;;10.80;6.30;;;25.70;99.90;;;;;;5051239;28;20124;-74
2022/09/01 00:07:15;;;;;;;11.20;6.10;;;25.70;99.90;;;;;;5034491;28;20151;-74
2022/09/01 00:09:43;;;;;;;9.20;5.63;;;25.60;99.90;;;;;;5051363;28;20140;-74
2022/09/01 00:12:13;;;;;;;9.57;6.63;;;25.60;99.90;;;;;;5052619;28;20048;-74
2022/09/01 00:14:41;;;;;;;10.98;6.28;;;25.60;99.90;;;;;;5049181;28;20044;-74
2022/09/01 00:17:10;;;;;;;9.95;6.70;;;25.50;99.90;;;;;;5052233;28;20056;-74
2022/09/01 00:19:38;;;;;;;12.13;7.05;;;25.50;99.90;;;;;;5017149;28;20098;-75
2022/09/01 00:22:07;;;;;;;8.90;6.80;;;25.40;99.90;;;;;;5034761;28;20049;-75
2022/09/01 00:24:34;;;;;;;12.18;6.15;;;25.40;99.90;;;;;;5051005;28;20144;-74
2022/09/01 00:27:03;;;;;;;13.70;6.75;;;25.30;99.90;;;;;;5051542;28;20569;-74
2022/09/01 00:29:30;;;;;;;7.78;5.72;;;25.40;99.90;;;;;;5033844;28;20155;-74
2022/09/01 00:31:58;;;;;;;10.35;6.97;;;25.40;99.90;;;;;;5050337;28;20120;-74
2022/09/01 00:34:25;;;;;;;9.45;5.50;;;25.30;99.90;;;;;;5034159;28;20139;-74
2022/09/01 00:36:53;;;;;;;9.65;4.85;;;25.30;99.90;;;;;;5050152;28;20052;-74
2022/09/01 00:39:20;;;;;;;8.80;6.80;;;25.40;99.90;;;;;;5034158;28;20091;-74
2022/09/01 00:41:49;;;;;;;8.68;5.95;;;25.30;99.90;;;;;;5050357;28;20041;-74
2022/09/01 00:44:26;;;;;;;8.93;6.30;;;25.40;99.90;;;;;;5034355;28;20091;-74
2022/09/01 00:46:55;;;;;;;8.98;5.72;;;25.40;99.90;;;;;;5050452;28;20547;-74
2022/09/01 00:49:32;;;;;;;8.98;5.75;;;25.40;99.90;;;;;;5050434;28;20127;-75
2022/09/01 00:52:12;;;;;;;8.43;5.30;;;25.30;99.90;;;;;;5034168;28;20045;-74
2022/09/01 00:54:46;;;;;;;9.25;5.95;;;25.40;99.90;;;;;;5050576;28;20122;-74
2022/09/01 00:57:15;;;;;;;7.88;4.85;;;25.40;99.90;;;;;;5050267;28;20182;-74
2022/09/01 00:59:52;;;;;;;7.80;5.38;;;25.30;99.90;;;;;;5050060;28;20080;-75
2022/09/01 01:02:20;;;;;;;9.10;5.20;;;25.30;99.90;;;;;;5050511;28;20630;-74
2022/09/01 01:04:47;;;;;;;7.90;5.15;;;25.20;99.90;;;;;;5050294;28;20037;-74
2022/09/01 01:07:16;;;;;;;7.60;5.68;;;25.10;99.90;;;;;;5031401;28;20033;-74
2022/09/01 01:09:45;;;;;;;8.63;5.85;;;25.10;99.90;;;;;;5017045;28;20699;-74
2022/09/01 01:12:17;;;;;;;7.28;5.20;;;25.10;99.90;;;;;;5050213;28;20045;-74
2022/09/01 01:14:49;;;;;;;9.13;5.90;;;25.10;99.90;;;;;;5033638;28;20071;-75
2022/09/01 01:17:20;;;;;;;7.30;5.30;;;25.00;99.90;;;;;;5033419;28;20538;-74
2022/09/01 01:23:09;;;;;;;10.10;6.45;;;25.00;99.90;;;;;;5049443;28;20065;-74
2022/09/01 01:25:52;;;;;;;9.82;6.88;;;25.00;99.90;;;;;;5047607;28;20057;-74
2022/09/01 01:28:29;;;;;;;11.70;6.15;;;24.90;99.90;;;;;;5028017;28;20057;-74
2022/09/01 01:31:11;;;;;;;11.25;5.45;;;24.90;99.90;;;;;;5012183;28;20081;-74
2022/09/01 01:33:41;;;;;;;9.43;6.60;;;24.90;99.90;;;;;;5013098;28;20045;-74
2022/09/01 01:36:12;;;;;;;9.73;6.22;;;24.90;99.90;;;;;;5029389;28;20148;-74
2022/09/01 01:38:43;;;;;;;11.35;5.97;;;24.90;99.90;;;;;;5013466;28;20045;-74
2022/09/01 01:41:13;;;;;;;8.70;5.85;;;24.90;99.90;;;;;;5029650;28;20506;-74
2022/09/01 01:43:41;;;;;;;8.05;6.18;;;24.90;99.90;;;;;;5012609;28;20186;-74
2022/09/01 01:46:10;;;;;;;9.50;6.10;;;24.90;99.90;;;;;;5030003;28;20046;-74
2022/09/01 01:48:41;;;;;;;8.77;4.68;;;24.90;99.90;;;;;;4997103;28;20049;-75
2022/09/01 01:51:10;;;;;;;10.18;5.97;;;24.80;99.90;;;;;;4996942;28;20049;-74
2022/09/01 01:53:39;;;;;;;6.65;5.38;;;24.80;99.90;;;;;;4997110;28;20123;-75
2022/09/01 01:56:08;;;;;;;7.28;5.10;;;24.80;99.90;;;;;;4997625;28;20049;-74
2022/09/01 01:58:36;;;;;;;6.93;5.05;;;24.80;99.90;;;;;;5033127;28;20399;-74
2022/09/01 02:01:11;;;;;;;8.93;5.07;;;24.80;99.90;;;;;;5050310;28;20048;-74
2022/09/01 02:03:40;;;;;;;6.68;4.80;;;24.80;99.90;;;;;;5049055;28;20053;-74
2022/09/01 02:06:10;;;;;;;8.80;4.72;;;24.90;99.90;;;;;;5049435;28;20143;-74
2022/09/01 02:08:42;;;;;;;9.95;4.25;;;24.90;99.90;;;;;;5049427;28;20045;-74
2022/09/01 02:11:11;;;;;;;9.18;5.25;;;24.90;99.90;;;;;;5049508;28;20036;-74
2022/09/01 02:13:39;;;;;;;7.38;4.63;;;24.90;99.90;;;;;;5049351;28;20041;-74
2022/09/01 02:16:13;;;;;;;6.07;4.60;;;24.90;99.90;;;;;;5049211;28;20048;-74
2022/09/01 02:18:46;;;;;;;6.00;4.10;;;24.90;99.90;;;;;;5032861;28;20132;-74
2022/09/01 02:21:19;;;;;;;4.85;3.90;;;24.80;99.90;;;;;;5049541;28;20044;-75
2022/09/01 02:23:58;;;;;;;8.18;4.88;;;24.80;99.90;;;;;;5032589;28;20087;-74
2022/09/01 02:26:41;;;;;;;6.78;4.72;;;24.80;99.90;;;;;;5032388;28;20395;-74
2022/09/01 02:29:17;;;;;;;6.45;4.30;;;24.80;99.90;;;;;;5032551;28;20144;-74
2022/09/01 02:31:48;;;;;;;6.10;4.70;;;24.80;99.90;;;;;;5048706;28;20052;-74
2022/09/01 02:34:17;;;;;;;6.20;4.57;;;24.80;99.90;;;;;;5048938;28;20052;-75
2022/09/01 02:36:51;;;;;;;9.18;4.32;;;24.80;99.90;;;;;;5032469;28;20059;-74
2022/09/01 02:39:26;;;;;;;5.15;3.92;;;24.80;99.90;;;;;;5033124;28;20049;-74
2022/09/01 02:41:54;;;;;;;5.38;4.25;;;24.80;99.90;;;;;;5045095;28;20044;-74
2022/09/01 02:44:26;;;;;;;6.07;4.05;;;24.80;99.90;;;;;;5016168;28;20080;-75
2022/09/01 02:46:55;;;;;;;6.70;3.83;;;24.70;99.90;;;;;;5016604;28;20402;-74
2022/09/01 02:49:27;;;;;;;6.78;4.70;;;24.70;99.90;;;;;;5033000;28;20083;-74
2022/09/01 02:52:00;;;;;;;6.28;4.03;;;24.60;99.90;;;;;;5016467;28;20144;-74
2022/09/01 02:54:31;;;;;;;5.38;3.75;;;24.60;99.90;;;;;;5016253;28;20045;-75
2022/09/01 02:56:59;;;;;;;8.52;4.47;;;24.60;99.90;;;;;;5016275;28;20609;-75
2022/09/01 02:59:28;;;;;;;6.10;4.50;;;24.60;99.90;;;;;;5032719;28;20052;-74
2022/09/01 03:01:59;;;;;;;6.50;4.38;;;24.60;99.90;;;;;;5015529;28;20048;-74
2022/09/01 03:04:27;;;;;;;5.65;4.45;;;24.50;99.90;;;;;;5036238;28;20116;-74
2022/09/01 03:06:57;;;;;;;7.55;4.72;;;24.50;99.90;;;;;;5052544;28;20064;-75
2022/09/01 03:09:25;;;;;;;8.43;4.60;;;24.40;99.90;;;;;;5053698;28;20552;-74
2022/09/01 03:11:54;;;;;;;8.40;4.82;;;24.40;99.90;;;;;;5052097;28;20506;-75
2022/09/01 03:14:24;;;;;;;6.90;4.38;;;24.40;99.90;;;;;;5036216;28;20040;-74
2022/09/01 03:16:53;;;;;;;6.63;4.78;;;24.30;99.90;;;;;;5019270;28;20045;-74
2022/09/01 03:19:20;;;;;;;5.53;4.13;;;24.30;99.90;;;;;;5035989;28;20511;-75
2022/09/01 03:21:48;;;;;;;9.68;5.03;;;24.20;99.90;;;;;;5052004;28;20068;-74
2022/09/01 03:24:21;;;;;;;6.75;4.60;;;24.20;99.90;;;;;;5035699;28;20131;-75
2022/09/01 03:26:50;;;;;;;6.97;4.35;;;24.20;99.90;;;;;;5035099;28;20049;-74
2022/09/01 03:29:19;;;;;;;7.53;5.85;;;24.20;99.90;;;;;;5035507;28;20041;-74
2022/09/01 03:31:46;;;;;;;10.93;7.50;;;24.20;99.90;;;;;;5051581;28;20033;-74
2022/09/01 03:34:16;;;;;;;20.35;12.05;;;24.20;99.90;;;;;;5051265;28;20040;-74
2022/09/01 03:36:53;;;;;;;15.68;10.65;;;24.20;99.90;;;;;;5033934;28;20049;-75
2022/09/01 03:39:28;;;;;;;18.17;10.85;;;24.20;99.90;;;;;;5011478;28;20054;-74
2022/09/01 03:41:57;;;;;;;17.77;10.98;;;24.10;99.90;;;;;;5015453;28;20140;-75
2022/09/01 03:44:26;;;;;;;17.20;10.07;;;24.20;99.90;;;;;;4999024;28;20061;-75
2022/09/01 03:46:53;;;;;;;10.63;7.28;;;24.10;99.90;;;;;;5015133;28;20149;-74
2022/09/01 03:49:26;;;;;;;9.40;5.88;;;24.20;99.90;;;;;;5015086;28;20045;-75
2022/09/01 03:51:56;;;;;;;7.82;5.30;;;24.20;99.90;;;;;;5015532;28;20050;-75
2022/09/01 03:54:29;;;;;;;7.95;4.07;;;24.20;99.90;;;;;;5029989;28;20041;-74
2022/09/01 03:56:58;;;;;;;5.55;3.83;;;24.20;99.90;;;;;;5031298;28;20049;-75
2022/09/01 03:59:28;;;;;;;5.47;3.97;;;24.20;99.90;;;;;;5014911;28;20372;-74
2022/09/01 04:01:56;;;;;;;5.82;4.30;;;24.20;99.90;;;;;;5014598;28;20049;-74
2022/09/01 04:04:25;;;;;;;5.20;3.63;;;24.20;99.90;;;;;;5031202;28;20049;-74
2022/09/01 04:06:53;;;;;;;5.53;4.50;;;24.10;99.90;;;;;;5014677;28;20045;-74
2022/09/01 04:09:21;;;;;;;7.90;4.90;;;24.10;99.90;;;;;;5030975;28;20099;-74
2022/09/01 04:11:49;;;;;;;7.78;4.70;;;24.10;99.90;;;;;;5030879;28;20045;-74
2022/09/01 04:14:17;;;;;;;7.80;5.03;;;24.10;99.90;;;;;;5016932;28;20052;-73
2022/09/01 04:19:38;;;;;;;7.82;4.70;;;24.20;99.90;;;;;;5033021;28;20098;-73
2022/09/01 04:22:13;;;;;;;6.20;4.35;;;24.10;99.90;;;;;;5024470;28;20036;-74
2022/09/01 04:24:44;;;;;;;8.18;5.47;;;24.10;99.90;;;;;;5035089;28;20063;-74
2022/09/01 04:27:14;;;;;;;8.10;4.38;;;24.10;99.90;;;;;;5029658;28;20044;-73
2022/09/01 04:29:44;;;;;;;6.78;4.15;;;24.10;99.90;;;;;;5024118;28;20110;-74
2022/09/01 04:32:12;;;;;;;8.88;5.43;;;24.10;99.90;;;;;;5037021;28;20056;-74
2022/09/01 04:34:44;;;;;;;6.63;4.53;;;24.20;99.90;;;;;;5029929;28;20049;-75
2022/09/01 04:37:17;;;;;;;6.47;4.00;;;24.20;99.90;;;;;;5056207;28;20032;-74
2022/09/01 04:39:51;;;;;;;7.00;4.35;;;24.20;99.90;;;;;;5018455;28;20048;-74
2022/09/01 04:42:23;;;;;;;6.45;4.18;;;24.30;99.90;;;;;;5022825;28;20052;-74
2022/09/01 04:44:53;;;;;;;5.65;4.13;;;24.40;99.90;;;;;;5040453;28;20136;-74
2022/09/01 04:47:28;;;;;;;7.15;4.28;;;24.50;99.90;;;;;;5037770;28;20496;-74
2022/09/01 04:49:59;;;;;;;4.83;3.40;;;24.60;99.90;;;;;;5044912;28;20033;-74
2022/09/01 04:52:27;;;;;;;6.00;4.00;;;24.70;99.90;;;;;;5043804;28;20340;-74
2022/09/01 04:54:57;;;;;;;6.85;4.28;;;24.90;99.90;;;;;;5057439;28;20044;-75
2022/09/01 04:57:26;;;;;;;5.53;3.05;;;25.00;99.90;;;;;;5029178;28;20049;-74
2022/09/01 04:59:57;;;;;;;5.45;3.72;;;25.10;99.90;;;;;;5029980;28;20084;-74
2022/09/01 05:02:27;;;;;;;4.55;3.63;;;25.20;99.90;;;;;;5029729;28;20495;-74
2022/09/01 05:04:57;;;;;;;5.93;3.72;;;25.40;99.90;;;;;;5012739;28;20056;-75
2022/09/01 05:07:25;;;;;;;4.78;3.45;;;25.50;99.90;;;;;;5043052;28;20091;-74
2022/09/01 05:09:56;;;;;;;4.82;3.22;;;25.70;99.90;;;;;;5006820;28;20651;-75
2022/09/01 05:12:56;;;;;;;6.72;3.88;;;25.80;99.90;;;;;;5024140;28;20059;-74
2022/09/01 05:15:23;;;;;;;5.43;3.42;;;26.00;99.90;;;;;;5049931;28;20045;-74
2022/09/01 05:17:54;;;;;;;5.47;3.88;;;26.10;99.90;;;;;;5050957;28;20087;-74
2022/09/01 05:20:23;;;;;;;7.22;3.65;;;26.30;99.90;;;;;;5024549;28;20065;-74
2022/09/01 05:22:55;;;;;;;5.07;3.17;;;26.50;99.90;;;;;;5040781;28;20049;-75
2022/09/01 05:25:23;;;;;;;5.72;3.30;;;26.60;99.90;;;;;;4997388;28;20053;-74
2022/09/01 05:27:51;;;;;;;5.38;4.03;;;26.80;99.90;;;;;;4996900;28;20056;-74
2022/09/01 05:30:21;;;;;;;8.60;4.10;;;26.90;99.90;;;;;;5013127;28;20057;-74
2022/09/01 05:32:49;;;;;;;6.10;4.00;;;27.00;99.90;;;;;;5012617;28;20050;-74
2022/09/01 05:35:17;;;;;;;6.03;3.67;;;27.20;99.90;;;;;;5013618;28;20056;-74
2022/09/01 05:37:45;;;;;;;5.03;3.78;;;27.30;99.90;;;;;;5012650;28;20480;-76
2022/09/01 05:40:14;;;;;;;5.00;3.47;;;27.40;99.90;;;;;;5029856;28;20049;-74
2022/09/01 05:42:44;;;;;;;6.00;4.03;;;27.60;99.90;;;;;;5029916;28;20499;-74
2022/09/01 05:45:13;;;;;;;6.15;3.60;;;27.70;99.90;;;;;;5014133;28;20033;-74
2022/09/01 05:47:41;;;;;;;5.47;3.35;;;27.80;99.90;;;;;;5029573;28;20042;-74
2022/09/01 05:50:10;;;;;;;5.32;3.45;;;27.90;99.90;;;;;;5012486;28;20049;-74
2022/09/01 05:52:43;;;;;;;5.35;3.78;;;28.10;99.90;;;;;;5012360;28;20042;-74
2022/09/01 05:55:13;;;;;;;5.30;3.75;;;28.20;99.90;;;;;;4996100;28;20049;-74
2022/09/01 05:57:42;;;;;;;5.25;3.63;;;28.30;99.90;;;;;;5012990;28;20041;-74
2022/09/01 06:00:12;;;;;;;8.40;5.30;;;28.40;99.90;;;;;;4996909;28;20049;-74
2022/09/01 06:02:41;;;;;;;6.30;4.13;;;28.50;99.90;;;;;;5030704;28;20038;-75
2022/09/01 06:05:14;;;;;;;6.13;3.75;;;28.70;99.90;;;;;;5013012;28;20057;-74
2022/09/01 06:07:44;;;;;;;7.85;3.97;;;28.70;99.90;;;;;;5029116;28;20492;-74
2022/09/01 06:10:13;;;;;;;5.70;4.00;;;28.80;99.90;;;;;;4996982;28;20378;-74
2022/09/01 06:12:41;;;;;;;6.78;4.40;;;28.90;99.90;;;;;;5030479;28;20104;-74
2022/09/01 06:15:14;;;;;;;5.35;3.60;;;28.90;99.90;;;;;;5029343;28;20046;-74
2022/09/01 06:17:45;;;;;;;;;;;28.90;99.90;;;;;;5030794;28;20033;-74
2022/09/01 06:20:17;;;;;;;5.30;3.83;;;29.00;99.90;;;;;;5033354;28;19932;-75
2022/09/01 06:22:44;;;;;;;6.53;4.57;;;29.10;99.90;;;;;;5017199;28;20053;-75
2022/09/01 06:25:13;;;;;;;5.75;4.43;;;29.20;99.90;;;;;;5017319;28;20041;-74
2022/09/01 06:27:46;;;;;;;8.23;3.83;;;29.30;99.90;;;;;;5017132;28;20565;-74
2022/09/01 06:30:19;;;;;;;7.00;4.07;;;29.20;99.90;;;;;;5033416;28;20041;-74
2022/09/01 06:32:54;;;;;;;6.53;4.20;;;29.40;99.90;;;;;;5025948;28;20407;-74
2022/09/01 06:35:28;;;;;;;7.65;3.75;;;29.50;99.90;;;;;;5016422;28;20049;-74
2022/09/01 06:37:57;;;;;;;6.90;3.72;;;29.40;99.90;;;;;;5032973;28;20526;-75
2022/09/01 06:41:00;;;;;;;6.40;3.60;;;29.50;99.90;;;;;;5031949;28;20054;-74
2022/09/01 06:43:29;;;;;;;7.65;4.30;;;29.60;99.90;;;;;;5016650;28;20110;-74
2022/09/01 06:46:00;;;;;;;4.18;3.17;;;29.60;99.90;;;;;;5034467;28;20156;-74
2022/09/01 06:48:30;;;;;;;7.78;4.50;;;29.60;99.90;;;;;;5032938;28;20462;-74
2022/09/01 06:51:03;;;;;;;4.53;3.30;;;29.80;99.90;;;;;;5049589;28;20045;-74
2022/09/01 06:53:55;;;;;;;4.97;2.90;;;30.10;99.90;;;;;;5049049;28;20045;-74
2022/09/01 06:56:30;;;;;;;;;;;30.20;99.90;;;;;;5001361;28;20167;-74
2022/09/01 06:58:58;;;;;;;6.20;3.55;;;30.50;99.90;;;;;;5016622;28;19931;-74
2022/09/01 07:01:27;;;;;;;5.63;3.60;;;30.70;99.90;;;;;;5032864;28;20064;-74
2022/09/01 07:03:55;;;;;;;4.18;2.97;;;30.80;99.90;;;;;;5032614;28;20045;-73
2022/09/01 07:06:39;;;;;;;6.18;3.30;;;30.90;99.90;;;;;;5016312;28;20041;-74
2022/09/01 07:09:48;;;;;;;5.53;3.15;;;30.80;99.90;;;;;;5022068;28;20462;-74
2022/09/01 07:12:35;;;;;;;5.68;2.92;;;31.00;99.80;;;;;;5032506;28;20064;-74
2022/09/01 07:15:03;;;;;;;4.05;2.97;;;31.20;99.50;;;;;;5032302;28;20045;-74
2022/09/01 07:17:54;;;;;;;4.50;3.22;;;31.30;98.90;;;;;;5032124;28;20045;-74
2022/09/01 07:20:28;;;;;;;4.25;3.47;;;31.40;98.30;;;;;;5032397;28;20049;-74
2022/09/01 07:22:56;;;;;;;5.05;2.90;;;31.60;97.90;;;;;;5032252;28;20049;-74
2022/09/01 07:25:44;;;;;;;4.18;2.90;;;31.50;96.90;;;;;;5031778;28;20072;-75
2022/09/01 07:28:38;;;;;;;4.18;3.20;;;31.60;97.00;;;;;;5019590;28;20058;-74
2022/09/01 07:31:07;;;;;;;5.32;2.88;;;31.70;97.00;;;;;;5015604;28;20047;-74
2022/09/01 07:34:00;;;;;;;5.93;2.80;;;31.60;96.10;;;;;;5031941;28;20514;-74
2022/09/01 07:36:48;;;;;;;5.15;3.58;;;31.70;96.10;;;;;;5031680;28;20073;-74
2022/09/01 07:39:47;;;;;;;4.32;2.60;;;31.50;95.80;;;;;;5002151;28;20415;-74
2022/09/01 07:42:34;;;;;;;5.75;3.30;;;31.50;96.10;;;;;;5032074;28;20136;-73
2022/09/01 07:45:46;;;;;;;5.35;3.13;;;31.70;96.40;;;;;;5020873;28;20049;-74
2022/09/01 07:48:20;;;;;;;4.88;3.63;;;31.70;96.30;;;;;;5032066;28;20056;-75
2022/09/01 07:51:12;;;;;;;3.90;2.60;;;31.70;96.30;;;;;;5020336;28;20586;-75
2022/09/01 07:54:01;;;;;;;5.25;3.53;;;31.70;96.00;;;;;;5014695;28;20048;-75
2022/09/01 07:56:29;;;;;;;5.80;3.60;;;31.70;96.20;;;;;;5034037;28;20399;-73
2022/09/01 07:58:57;;;;;;;5.32;3.08;;;31.90;96.70;;;;;;5044277;28;20094;-73
2022/09/01 08:01:27;;;;;;;4.25;3.15;;;31.90;96.40;;;;;;5034216;28;20045;-73
2022/09/01 08:03:58;;;;;;;7.13;3.25;;;31.50;96.00;;;;;;5025753;28;20037;-73
2022/09/01 08:06:28;;;;;;;4.22;2.70;;;31.50;96.30;;;;;;5027116;28;20140;-73
2022/09/01 08:09:06;;;;;;;4.47;3.20;;;31.70;96.60;;;;;;5017789;28;20080;-73
2022/09/01 08:11:34;;;;;;;5.78;3.00;;;31.90;96.30;;;;;;5016587;28;20597;-73
2022/09/01 08:14:17;;;;;;;3.83;2.78;;;32.20;96.10;;;;;;5021286;28;20095;-73
2022/09/01 08:16:45;;;;;;;3.78;2.58;;;32.50;95.40;;;;;;5038531;28;20069;-73
2022/09/01 08:19:21;;;;;;;3.42;2.60;;;32.70;95.20;;;;;;5038006;28;20554;-75
2022/09/01 08:22:03;;;;;;;6.18;2.92;;;32.50;95.10;;;;;;5017225;28;20758;-73
2022/09/01 08:24:41;;;;;;;6.60;4.20;;;32.10;94.90;;;;;;5013366;28;20045;-73
2022/09/01 08:27:09;;;;;;;3.50;2.47;;;32.10;95.40;;;;;;5031613;28;20678;-73
2022/09/01 08:29:36;;;;;;;5.70;2.97;;;32.00;95.40;;;;;;5035242;28;20389;-73
2022/09/01 08:32:04;;;;;;;5.80;2.75;;;32.20;95.30;;;;;;5038900;28;20411;-73
2022/09/01 08:34:33;;;;;;;3.45;2.75;;;32.10;95.40;;;;;;5027508;28;20041;-73
2022/09/01 08:37:00;;;;;;;4.38;3.20;;;32.00;95.30;;;;;;5015497;28;20138;-72
2022/09/01 08:39:28;;;;;;;7.63;3.13;;;31.90;95.50;;;;;;5026285;28;20522;-73
2022/09/01 08:42:18;;;;;;;6.18;3.15;;;32.00;95.10;;;;;;5041936;28;20041;-73
2022/09/01 08:45:10;;;;;;;5.03;3.47;;;31.70;95.00;;;;;;5025548;28;20045;-72
2022/09/01 08:47:38;;;;;;;6.05;3.53;;;31.50;95.30;;;;;;5007199;28;20052;-73
2022/09/01 08:50:19;;;;;;;5.95;3.50;;;31.40;95.50;;;;;;5025205;28;20045;-73
2022/09/01 08:53:15;;;;;;;5.75;3.13;;;31.70;95.40;;;;;;5036619;28;20411;-75
2022/09/01 08:55:46;;;;;;;5.60;2.90;;;32.20;95.20;;;;;;5025365;28;20136;-73
2022/09/01 08:58:16;;;;;;;7.20;3.25;;;32.70;94.80;;;;;;5013238;28;20052;-73
2022/09/01 09:01:10;;;;;;;6.90;3.70;;;32.90;94.30;;;;;;5040728;28;20045;-73
2022/09/01 09:04:09;;;;;;;6.10;3.08;;;33.00;94.10;;;;;;5041338;28;20049;-73
2022/09/01 09:06:51;;;;;;;4.75;3.22;;;32.50;94.00;;;;;;5039737;28;20803;-75
2022/09/01 09:09:20;;;;;;;6.07;3.42;;;32.30;93.80;;;;;;5029265;28;20399;-74
2022/09/01 09:12:32;;;;;;;6.63;3.60;;;32.10;94.10;;;;;;5038118;28;20048;-73
2022/09/01 09:15:02;;;;;;;5.18;3.83;;;31.90;94.40;;;;;;5005428;28;20050;-73
2022/09/01 09:17:38;;;;;;;7.40;3.70;;;31.60;94.40;;;;;;5037061;28;20038;-72
2022/09/01 09:20:06;;;;;;;4.03;2.70;;;31.20;94.60;;;;;;5043492;28;20041;-73
2022/09/01 09:22:35;;;;;;;5.47;3.22;;;30.90;94.80;;;;;;5023198;28;20550;-73
2022/09/01 09:25:08;;;;;;;4.90;3.00;;;30.70;95.30;;;;;;5018569;28;20511;-74
2022/09/01 09:27:38;;;;;;;6.82;3.47;;;30.60;95.80;;;;;;5022565;28;20045;-73
2022/09/01 09:30:25;;;;;;;7.40;3.13;;;30.60;97.20;;;;;;5033506;28;20057;-73
2022/09/01 09:33:05;;;;;;;5.72;3.20;;;30.50;98.50;;;;;;5018755;28;20100;-72
2022/09/01 09:35:56;;;;;;;5.72;3.35;;;30.50;99.00;;;;;;5027189;28;20057;-73
2022/09/01 09:38:27;;;;;;;6.78;3.20;;;30.40;99.30;;;;;;5034109;28;20394;-73
2022/09/01 09:41:15;;;;;;;5.78;3.30;;;30.40;99.50;;;;;;5037408;28;20419;-74
2022/09/01 09:43:58;;;;;;;5.07;3.15;;;30.30;99.50;;;;;;5039302;28;20053;-73
2022/09/01 09:46:38;;;;;;;5.10;3.70;;;30.40;99.70;;;;;;5026560;28;20045;-73
2022/09/01 09:49:18;;;;;;;8.80;3.70;;;30.40;99.70;;;;;;5013423;28;20047;-72
2022/09/01 09:52:06;;;;;;;7.30;3.45;;;30.20;99.80;;;;;;5028836;28;20095;-73
2022/09/01 09:54:35;;;;;;;6.50;3.58;;;30.00;99.90;;;;;;5029929;28;20509;-72
2022/09/01 09:57:12;;;;;;;5.47;3.47;;;30.00;99.90;;;;;;5033774;28;20064;-72
2022/09/01 09:59:55;;;;;;;5.93;3.42;;;29.90;99.90;;;;;;5000081;28;20064;-72
2022/09/01 10:02:33;;;;;;;9.25;3.05;;;29.90;99.90;;;;;;5012965;28;20089;-74
2022/09/01 10:05:19;;;;;;;7.18;4.00;;;30.00;99.90;;;;;;5040483;28;20041;-72
2022/09/01 10:07:47;;;;;;;4.05;3.05;;;30.00;99.90;;;;;;5047147;28;20067;-73
2022/09/01 10:10:30;;;;;;;5.25;3.60;;;30.00;99.90;;;;;;5039648;28;20132;-73
2022/09/01 10:12:59;;;;;;;7.35;3.50;;;30.00;99.70;;;;;;5034697;28;20041;-73
2022/09/01 10:15:31;;;;;;;5.15;2.90;;;29.80;99.70;;;;;;5039087;28;20053;-75
2022/09/01 10:18:14;;;;;;;4.63;3.45;;;29.70;99.50;;;;;;5037929;28;20041;-71
2022/09/01 10:20:54;;;;;;;4.85;2.90;;;29.70;99.50;;;;;;5037038;28;20049;-72
2022/09/01 10:23:26;;;;;;;7.13;3.30;;;29.70;99.00;;;;;;5039323;28;20045;-71
2022/09/01 10:26:01;;;;;;;5.85;2.97;;;29.80;98.70;;;;;;5040374;28;20072;-73
2022/09/01 10:28:35;;;;;;;5.47;3.00;;;29.90;98.10;;;;;;4997757;28;20045;-72
2022/09/01 10:31:03;;;;;;;4.63;3.10;;;30.00;97.70;;;;;;5029073;28;20523;-72
2022/09/01 10:33:31;;;;;;;5.25;3.70;;;30.10;97.50;;;;;;5012098;28;20079;-72
2022/09/01 10:35:59;;;;;;;5.93;3.03;;;30.00;96.80;;;;;;4996703;28;20061;-72
2022/09/01 10:38:28;;;;;;;7.15;3.53;;;30.10;96.50;;;;;;5041307;28;20045;-72
2022/09/01 10:41:08;;;;;;;4.50;3.08;;;30.20;96.20;;;;;;5019775;28;20391;-72
2022/09/01 10:43:42;;;;;;;5.32;3.22;;;30.30;96.20;;;;;;5011849;28;20136;-72
2022/09/01 10:46:18;;;;;;;5.38;3.17;;;30.40;96.30;;;;;;5034786;28;20387;-71
2022/09/01 10:48:55;;;;;;;9.60;3.22;;;30.60;95.20;;;;;;5014179;28;20115;-72
2022/09/01 10:51:28;;;;;;;5.45;3.25;;;30.80;95.10;;;;;;5024647;28;20065;-72
2022/09/01 10:54:04;;;;;;;4.90;3.22;;;30.90;95.00;;;;;;5039112;28;20041;-72
2022/09/01 10:56:45;;;;;;;3.78;2.95;;;31.00;94.60;;;;;;5041162;28;20041;-72
2022/09/01 10:59:27;;;;;;;5.07;3.03;;;30.80;94.10;;;;;;5027191;28;20061;-72
2022/09/01 11:02:16;;;;;;;5.75;2.60;;;30.30;94.70;;;;;;5037789;28;20276;-72
2022/09/01 11:05:03;;;;;;;7.43;3.13;;;30.20;94.60;;;;;;5047561;28;20045;-72
2022/09/01 11:07:34;;;;;;;4.40;2.70;;;30.10;94.60;;;;;;5030736;28;20045;-72
2022/09/01 11:10:42;;;;;;;4.30;3.17;;;30.20;94.60;;;;;;5032125;28;20131;-73
2022/09/01 11:13:34;;;;;;;6.57;3.60;;;30.30;94.30;;;;;;5033793;28;20057;-72
2022/09/01 11:16:29;;;;;;;4.65;3.15;;;30.20;94.50;;;;;;5015835;28;20045;-72
2022/09/01 11:19:25;;;;;;;4.82;3.50;;;30.00;94.30;;;;;;5032071;28;20529;-72
2022/09/01 11:22:24;;;;;;;4.78;3.25;;;30.00;94.60;;;;;;5030214;28;20179;-72
2022/09/01 11:25:12;;;;;;;6.03;2.67;;;29.80;94.20;;;;;;5031036;28;20048;-72
2022/09/01 11:27:49;;;;;;;3.97;2.78;;;29.80;94.40;;;;;;5031236;28;20045;-73
2022/09/01 11:30:22;;;;;;;4.72;3.55;;;29.70;94.50;;;;;;5031360;28;20053;-72
2022/09/01 11:32:57;;;;;;;5.97;3.33;;;29.90;94.60;;;;;;5031198;28;20099;-73
2022/09/01 11:35:27;;;;;;;6.45;3.08;;;29.90;94.30;;;;;;5031735;28;20115;-72
2022/09/01 11:38:00;;;;;;;6.68;3.45;;;29.90;94.20;;;;;;5015388;28;20059;-72
2022/09/01 11:40:33;;;;;;;4.55;2.47;;;30.00;94.30;;;;;;5034085;28;20046;-72
2022/09/01 11:43:10;;;;;;;5.03;2.90;;;30.10;94.30;;;;;;5015410;28;20499;-74
2022/09/01 11:45:55;;;;;;;4.32;2.55;;;30.30;94.50;;;;;;5015377;28;20108;-72
2022/09/01 11:48:25;;;;;;;5.53;2.30;;;30.50;94.30;;;;;;5031638;28;20057;-73
2022/09/01 11:51:02;;;;;;;4.93;2.30;;;30.50;93.90;;;;;;5031208;28;20049;-72
2022/09/01 11:53:30;;;;;;;5.93;2.58;;;30.30;94.10;;;;;;5037333;28;20048;-72
2022/09/01 11:56:17;;;;;;;5.18;2.90;;;30.30;94.30;;;;;;5015243;28;20046;-72
2022/09/01 11:58:46;;;;;;;3.85;2.70;;;30.20;94.20;;;;;;5024077;28;20385;-73
2022/09/01 12:01:33;;;;;;;3.75;2.42;;;30.30;94.10;;;;;;5032133;28;20132;-73
2022/09/01 12:04:23;;;;;;;5.65;2.83;;;30.40;93.80;;;;;;5031684;28;20049;-72
2022/09/01 12:07:04;;;;;;;4.63;2.85;;;30.40;93.20;;;;;;5022585;28;20046;-73
2022/09/01 12:09:46;;;;;;;5.97;2.35;;;30.40;93.10;;;;;;5030053;28;20041;-72
2022/09/01 12:12:26;;;;;;;6.07;2.65;;;30.30;92.90;;;;;;5047601;28;20108;-72
2022/09/01 12:14:57;;;;;;;4.65;2.53;;;30.20;92.90;;;;;;5017721;28;20410;-73
2022/09/01 12:17:31;;;;;;;3.67;2.00;;;30.10;92.80;;;;;;5037355;28;20075;-73
2022/09/01 12:20:27;;;;;;;4.70;2.53;;;30.00;92.70;;;;;;5030183;28;20049;-72
2022/09/01 12:22:58;;;;;;;3.47;2.30;;;29.80;92.70;;;;;;5029065;28;20526;-73
2022/09/01 12:25:30;;;;;;;3.97;2.13;;;29.80;92.80;;;;;;5034243;28;20057;-73
2022/09/01 12:28:00;;;;;;;3.22;2.03;;;29.70;92.70;;;;;;5041592;28;20041;-73
2022/09/01 12:30:34;;;;;;;3.28;2.30;;;29.60;92.80;;;;;;5036230;28;20849;-73
2022/09/01 12:33:06;;;;;;;3.97;2.25;;;29.50;93.10;;;;;;5024058;28;20492;-72
2022/09/01 12:35:50;;;;;;;4.53;2.30;;;29.40;93.20;;;;;;5025156;28;20115;-73
2022/09/01 12:38:19;;;;;;;3.90;1.95;;;29.50;93.00;;;;;;5020648;28;20094;-72
2022/09/01 12:40:50;;;;;;;3.38;2.15;;;29.40;92.90;;;;;;5031583;28;20125;-72
2022/09/01 12:43:39;;;;;;;4.78;2.00;;;29.40;92.90;;;;;;5043674;28;20040;-72
2022/09/01 12:46:11;;;;;;;3.17;2.22;;;29.30;92.70;;;;;;5028029;28;20392;-73
2022/09/01 12:48:40;;;;;;;3.30;2.15;;;29.30;92.80;;;;;;5040911;28;20088;-72
2022/09/01 12:51:22;;;;;;;4.82;2.08;;;29.30;92.10;;;;;;5038260;28;20507;-72
2022/09/01 12:53:59;;;;;;;4.35;1.80;;;29.30;92.20;;;;;;5017714;28;20041;-74
2022/09/01 12:56:31;;;;;;;3.70;2.03;;;29.30;91.90;;;;;;5022304;28;20094;-73
2022/09/01 12:59:08;;;;;;;3.22;2.00;;;29.30;92.10;;;;;;5026363;28;20395;-72
2022/09/01 13:01:42;;;;;;;2.92;1.80;;;29.40;92.00;;;;;;5026479;28;20061;-73
2022/09/01 13:04:29;;;;;;;4.50;1.63;;;29.40;92.00;;;;;;5016079;28;20585;-72
2022/09/01 13:07:05;;;;;;;3.42;1.83;;;29.30;91.80;;;;;;5007589;28;20107;-73
2022/09/01 13:09:33;;;;;;;3.65;1.90;;;29.10;92.00;;;;;;5023375;28;20057;-73
2022/09/01 13:12:16;;;;;;;3.15;2.00;;;29.10;92.60;;;;;;5020453;28;20045;-73
2022/09/01 13:14:44;;;;;;;5.53;1.95;;;29.10;93.20;;;;;;5049239;28;20470;-72
2022/09/01 13:17:12;;;;;;;6.45;2.03;;;29.20;94.20;;;;;;5033566;28;20045;-73
2022/09/01 13:19:41;;;;;;;3.67;2.15;;;29.20;94.50;;;;;;5031418;28;20041;-74
2022/09/01 13:22:09;;;;;;;2.90;1.90;;;29.10;93.20;;;;;;5029776;28;20092;-74
2022/09/01 13:24:38;;;;;;;3.20;1.75;;;29.10;93.70;;;;;;5041475;28;20040;-73
2022/09/01 13:27:06;;;;;;;4.13;1.80;;;29.20;93.40;;;;;;5039104;28;20048;-73
2022/09/01 13:29:50;;;;;;;3.95;2.08;;;29.10;92.70;;;;;;5037918;28;20049;-74